Terminal Aerodrome Forecast
Issued by NWS

Current Version | Previous Version | Text Only | Print | Product List | Glossary Off
Versions: 1 2 3 4 5 6 7 8 9 10 11 12 13 14 15 16

523
FTUS44 KCRP 261734
TAFLRD
TAF
KLRD 261734Z 2618/2718 03009KT P6SM -SHRA SCT015 BKN050 OVC100
      TEMPO 2618/2622 5SM TSRA BKN015CB
     FM262200 02012KT P6SM VCTS BKN015CB OVC080
      TEMPO 2622/2702 4SM TSRA BR OVC007CB
     FM270200 01009KT P6SM VCSH OVC012
      TEMPO 2702/2706 5SM -SHRA
     FM270800 36008KT 5SM BR OVC008
     FM271500 36007KT P6SM OVC015=

USA.gov is the U.S. government's official web portal to all federal, state and local government web resources and services.